Gardner, North Dakota
Current Conditions -  °F | °C
As of 2:53 AM on Friday 31 Oct 2014 (Local Time) from KFAR Reporting Station
Clear Clear  
Wind Chill: 10°   Ceiling: Unl
Heat Index: 20°   Visibility: 10mi
Dew Point: 16°   Wind: 8mph
Humidity: 85%   Direction: 330°NNW
Pressure: 30.6"   Gusts: NA
Location:  47.15°N, 96.97°W
Report Text: KFAR 310753Z 33007KT 10SM CLR M07/M09 A3060 RMK AO2 SLP375 T10671089
Loading
Personal Weather Stations






























Interactive Weather Map
Tropical Storm Tracking
New forecast layout! Learn more

10-Day Weather Forecast

Advertisements
Track Severe Weather on mobile